createdAt,value
2022-12-22T00:02:22.477Z,97573.39
2022-12-22T00:05:16.832Z,97575.03
2022-12-22T00:08:04.399Z,97573.11
2022-12-22T00:10:51.997Z,97574.73
2022-12-22T00:13:39.656Z,97579.66
2022-12-22T00:16:32.329Z,97585.92
2022-12-22T00:19:21.511Z,97571.70
2022-12-22T00:22:08.951Z,97585.89
2022-12-22T00:24:57.011Z,97583.15
2022-12-22T00:27:47.721Z,97597.05
2022-12-22T00:30:36.437Z,97612.36
2022-12-22T00:33:24.371Z,97615.06
2022-12-22T00:36:11.941Z,97629.83
2022-12-22T00:38:59.548Z,97630.63
2022-12-22T00:41:47.124Z,97638.01
2022-12-22T00:44:35.095Z,97634.44
2022-12-22T00:47:29.363Z,97630.59
2022-12-22T00:50:17.407Z,97627.30
2022-12-22T00:53:05.081Z,97633.86
2022-12-22T00:55:53.243Z,97638.20
2022-12-22T00:58:40.998Z,97654.02
2022-12-22T01:01:30.966Z,97659.49
2022-12-22T01:04:18.715Z,97651.80
2022-12-22T01:07:07.308Z,97642.93
2022-12-22T01:09:56.517Z,97671.41
2022-12-22T01:12:45.119Z,97671.36
2022-12-22T01:15:37.104Z,97671.66
2022-12-22T01:18:24.944Z,97665.63
2022-12-22T01:21:12.693Z,97674.92
2022-12-22T01:24:00.380Z,97682.53
2022-12-22T01:26:48.652Z,97679.78
2022-12-22T01:29:36.530Z,97675.94
2022-12-22T01:32:24.901Z,97679.22
2022-12-22T01:35:12.614Z,97671.00
2022-12-22T01:38:00.677Z,97663.64
2022-12-22T01:40:48.278Z,97666.06
2022-12-22T01:43:40.937Z,97662.50
2022-12-22T01:46:43.640Z,97666.31
2022-12-22T01:49:37.191Z,97667.38
2022-12-22T01:52:43.079Z,97657.53
2022-12-22T01:55:32.905Z,97660.00
2022-12-22T01:58:20.811Z,97666.52
2022-12-22T02:01:08.622Z,97659.40
2022-12-22T02:03:57.635Z,97652.00
2022-12-22T02:07:00.045Z,97648.70
2022-12-22T02:10:10.974Z,97647.07
2022-12-22T02:13:40.197Z,97640.23
2022-12-22T02:16:48.764Z,97627.66
2022-12-22T02:19:53.866Z,97625.19
2022-12-22T02:22:44.511Z,97614.25
2022-12-22T02:25:41.515Z,97615.05
2022-12-22T02:28:29.683Z,97618.32
2022-12-22T02:31:18.575Z,97621.30
2022-12-22T02:34:06.644Z,97620.19
2022-12-22T02:37:03.286Z,97608.35
2022-12-22T02:39:59.913Z,97615.50
2022-12-22T02:43:08.468Z,97609.25
2022-12-22T02:46:09.754Z,97604.09
2022-12-22T02:49:16.813Z,97604.11
2022-12-22T02:52:07.027Z,97601.41
2022-12-22T02:54:55.894Z,97603.09
2022-12-22T02:57:48.942Z,97592.72
2022-12-22T03:00:37.378Z,97591.38
2022-12-22T03:03:27.274Z,97590.61
2022-12-22T03:06:15.448Z,97587.08
2022-12-22T03:09:03.065Z,97577.27
2022-12-22T03:11:51.015Z,97576.75
2022-12-22T03:14:39.084Z,97577.06
2022-12-22T03:17:27.364Z,97567.80
2022-12-22T03:20:15.319Z,97557.72
2022-12-22T03:23:03.276Z,97546.27
2022-12-22T03:25:53.450Z,97533.48
2022-12-22T03:28:25.155Z,97521.48
2022-12-22T03:31:02.445Z,97527.78
2022-12-22T03:33:33.263Z,97549.91
2022-12-22T03:36:04.033Z,97556.25
2022-12-22T03:38:34.993Z,97554.36
2022-12-22T03:41:05.311Z,97553.05
2022-12-22T03:43:53.304Z,97547.36
2022-12-22T03:46:32.657Z,97550.38
2022-12-22T03:49:12.846Z,97549.88
2022-12-22T03:51:48.625Z,97547.73
2022-12-22T03:54:23.395Z,97547.45
2022-12-22T03:56:54.013Z,97552.67
2022-12-22T03:59:24.706Z,97544.19
2022-12-22T04:01:55.604Z,97541.77
2022-12-22T04:04:27.584Z,97534.91
2022-12-22T04:06:57.741Z,97528.38
2022-12-22T04:09:28.458Z,97525.08
2022-12-22T04:12:16.319Z,97524.52
2022-12-22T04:14:46.961Z,97516.61
2022-12-22T04:17:17.584Z,97514.13
2022-12-22T04:19:48.013Z,97512.76
2022-12-22T04:22:18.303Z,97504.84
2022-12-22T04:24:48.834Z,97502.66
2022-12-22T04:27:20.757Z,97506.47
2022-12-22T04:29:51.058Z,97512.73
2022-12-22T04:32:21.373Z,97505.64
2022-12-22T04:34:51.836Z,97503.16
2022-12-22T04:37:22.579Z,97515.74
2022-12-22T04:39:53.301Z,97514.08
2022-12-22T04:42:25.143Z,97509.72
2022-12-22T04:44:55.639Z,97503.69
2022-12-22T04:47:25.709Z,97499.06
2022-12-22T04:49:57.361Z,97497.95
2022-12-22T04:52:27.624Z,97496.84
2022-12-22T04:54:57.818Z,97500.11
2022-12-22T04:57:28.841Z,97497.67
2022-12-22T05:00:03.670Z,97491.64
2022-12-22T05:02:34.226Z,97482.62
2022-12-22T05:05:04.675Z,97478.23
2022-12-22T05:07:34.769Z,97479.34
2022-12-22T05:10:06.664Z,97473.31
2022-12-22T05:12:54.372Z,97469.22
2022-12-22T05:15:29.905Z,97460.76
2022-12-22T05:18:00.586Z,97459.64
2022-12-22T05:20:30.771Z,97455.28
2022-12-22T05:23:02.791Z,97450.08
2022-12-22T05:25:35.612Z,97451.17
2022-12-22T05:28:05.426Z,97442.97
2022-12-22T05:30:35.977Z,97445.98
2022-12-22T05:33:06.721Z,97452.25
2022-12-22T05:35:36.994Z,97458.52
2022-12-22T05:38:08.553Z,97451.43
2022-12-22T05:40:39.169Z,97454.70
2022-12-22T05:43:11.086Z,97457.41
2022-12-22T05:45:41.799Z,97463.39
2022-12-22T05:48:12.537Z,97471.27
2022-12-22T05:50:43.099Z,97465.25
2022-12-22T05:53:13.619Z,97464.17
2022-12-22T05:55:44.176Z,97458.14
2022-12-22T05:58:14.494Z,97458.68
2022-12-22T06:00:44.747Z,97458.41
2022-12-22T06:03:16.281Z,97455.13
2022-12-22T06:05:46.904Z,97451.02
2022-12-22T06:08:17.717Z,97449.63
2022-12-22T06:10:48.597Z,97444.97
2022-12-22T06:13:18.999Z,97448.80
2022-12-22T06:15:50.237Z,97438.94
2022-12-22T06:18:22.235Z,97430.22
2022-12-22T06:20:54.518Z,97429.11
2022-12-22T06:23:28.927Z,97427.17
2022-12-22T06:26:05.691Z,97423.61
2022-12-22T06:28:36.299Z,97424.97
2022-12-22T06:31:10.496Z,97418.42
2022-12-22T06:33:41.935Z,97408.05
2022-12-22T06:36:12.872Z,97403.66
2022-12-22T06:38:43.309Z,97407.73
2022-12-22T06:41:14.412Z,97396.54
2022-12-22T06:43:45.478Z,97390.81
2022-12-22T06:46:20.426Z,97389.97
2022-12-22T06:48:51.908Z,97381.25
2022-12-22T06:51:22.885Z,97378.21
2022-12-22T06:53:55.169Z,97379.05
2022-12-22T06:56:27.348Z,97386.66
2022-12-22T06:58:57.965Z,97385.84
2022-12-22T07:01:31.403Z,97384.45
2022-12-22T07:04:02.140Z,97366.98
2022-12-22T07:06:32.606Z,97357.41
2022-12-22T07:09:03.023Z,97356.59
2022-12-22T07:11:33.494Z,97353.84
2022-12-22T07:14:04.023Z,97351.38
2022-12-22T07:16:34.518Z,97356.26
2022-12-22T07:19:04.974Z,97349.99
2022-12-22T07:21:35.026Z,97339.07
2022-12-22T07:24:05.537Z,97343.95
2022-12-22T07:26:36.481Z,97344.75
2022-12-22T07:29:06.698Z,97348.28
2022-12-22T07:31:37.172Z,97361.64
2022-12-22T07:34:08.156Z,97351.53
2022-12-22T07:36:41.221Z,97343.89
2022-12-22T07:39:12.276Z,97341.16
2022-12-22T07:41:59.989Z,97325.88
2022-12-22T07:44:30.369Z,97328.59
2022-12-22T07:47:00.820Z,97345.50
2022-12-22T07:49:48.993Z,97354.20
2022-12-22T07:52:19.416Z,97357.45
2022-12-22T07:54:51.265Z,97347.37
2022-12-22T07:57:21.906Z,97337.26
2022-12-22T07:59:52.059Z,97347.03
2022-12-22T08:02:22.457Z,97358.76
2022-12-22T08:04:53.177Z,97358.76
2022-12-22T08:07:23.690Z,97355.19
2022-12-22T08:09:54.590Z,97355.99
2022-12-22T08:12:25.058Z,97365.53
2022-12-22T08:14:55.808Z,97367.14
2022-12-22T08:17:35.215Z,97373.93
2022-12-22T08:20:05.824Z,97377.75
2022-12-22T08:22:36.719Z,97373.09
2022-12-22T08:25:08.129Z,97376.06
2022-12-22T08:27:51.754Z,97371.98
2022-12-22T08:30:22.224Z,97360.23
2022-12-22T08:32:53.125Z,97357.49
2022-12-22T08:35:23.404Z,97364.02
2022-12-22T08:37:53.500Z,97365.92
2022-12-22T08:40:26.626Z,97366.72
2022-12-22T08:43:00.807Z,97360.18
2022-12-22T08:45:31.407Z,97358.25
2022-12-22T08:48:01.696Z,97347.33
2022-12-22T08:50:32.715Z,97346.76
2022-12-22T08:53:29.707Z,97343.77
2022-12-22T08:55:46.001Z,97348.91
2022-12-22T08:58:18.271Z,97347.50
2022-12-22T09:00:49.693Z,97340.97
2022-12-22T09:03:21.875Z,97345.30
2022-12-22T09:05:52.484Z,97343.39
2022-12-22T09:08:22.869Z,97339.55
2022-12-22T09:10:53.502Z,97329.45
2022-12-22T09:13:25.205Z,97331.09
2022-12-22T09:15:55.682Z,97327.25
2022-12-22T09:18:28.752Z,97313.61
2022-12-22T09:21:00.650Z,97303.51
2022-12-22T09:23:33.065Z,97303.78
2022-12-22T09:26:04.097Z,97299.12
2022-12-22T09:28:36.487Z,97297.20
2022-12-22T09:31:06.937Z,97297.74
2022-12-22T09:33:40.098Z,97304.53
2022-12-22T09:36:14.266Z,97311.61
2022-12-22T09:38:44.478Z,97312.42
2022-12-22T09:41:34.088Z,97308.31
2022-12-22T09:44:29.276Z,97313.19
2022-12-22T09:47:00.571Z,97321.09
2022-12-22T09:49:31.375Z,97322.42
2022-12-22T09:52:03.255Z,97323.78
2022-12-22T09:54:33.505Z,97318.86
2022-12-22T09:57:07.292Z,97324.00
2022-12-22T09:59:38.021Z,97324.27
2022-12-22T10:02:19.951Z,97319.34
2022-12-22T10:05:07.948Z,97319.59
2022-12-22T10:07:41.980Z,97316.59
2022-12-22T10:10:28.608Z,97318.75
2022-12-22T10:13:00.850Z,97314.09
2022-12-22T10:15:40.286Z,97308.65
2022-12-22T10:18:16.131Z,97310.83
2022-12-22T10:20:48.620Z,97302.36
2022-12-22T10:23:27.810Z,97302.09
2022-12-22T10:28:40.073Z,97280.16
2022-12-22T10:31:33.132Z,97280.16
2022-12-22T10:34:16.214Z,97309.11
2022-12-22T10:36:55.335Z,97301.73
2022-12-22T10:39:28.858Z,97303.64
2022-12-22T10:42:01.808Z,97308.27
2022-12-22T10:44:34.006Z,97316.16
2022-12-22T10:47:15.459Z,97314.22
2022-12-22T10:52:16.846Z,97369.98
2022-12-22T10:54:47.848Z,97416.23
2022-12-22T10:57:22.489Z,97446.41
2022-12-22T11:00:03.075Z,97482.59
2022-12-22T11:02:39.006Z,97482.59
2022-12-22T11:05:14.314Z,97505.41
2022-12-22T11:11:12.294Z,97539.94
2022-12-22T11:14:12.477Z,97560.06
2022-12-22T11:16:53.243Z,97576.05
2022-12-22T11:19:43.834Z,97579.85
2022-12-22T11:22:16.708Z,97606.20
2022-12-22T11:24:55.443Z,97624.39
2022-12-22T11:27:45.724Z,97636.04
2022-12-22T11:30:22.765Z,97650.19
2022-12-22T11:33:04.466Z,97660.48
2022-12-22T11:35:55.408Z,97668.05
2022-12-22T11:38:31.128Z,97684.33
2022-12-22T11:41:24.120Z,97708.53
2022-12-22T11:44:13.858Z,97718.83
2022-12-22T11:46:55.629Z,97707.17
2022-12-22T11:50:25.506Z,97722.19
2022-12-22T11:52:37.170Z,97717.84
2022-12-22T11:55:49.630Z,97731.27
2022-12-22T11:58:22.878Z,97731.36
2022-12-22T12:01:32.309Z,97746.49
2022-12-22T12:04:25.026Z,97746.87
2022-12-22T12:07:33.446Z,97760.62
2022-12-22T12:13:37.443Z,97792.16
2022-12-22T12:16:26.389Z,97799.11
2022-12-22T12:25:59.481Z,97825.94
2022-12-22T12:39:08.476Z,97846.69
2022-12-22T12:44:39.058Z,97851.06
2022-12-22T12:47:36.797Z,97868.59
2022-12-22T12:54:09.337Z,97868.17
2022-12-22T12:57:20.314Z,97894.70
2022-12-22T13:00:02.783Z,97917.14
2022-12-22T13:02:42.919Z,97926.49
2022-12-22T13:08:33.698Z,97949.91
2022-12-22T13:14:07.690Z,97972.66
2022-12-22T13:16:41.797Z,97977.66
2022-12-22T13:19:19.330Z,97982.65
2022-12-22T13:21:55.412Z,97995.24
2022-12-22T13:24:31.113Z,97987.09
2022-12-22T13:27:07.770Z,97984.67
2022-12-22T13:32:31.769Z,98035.87
2022-12-22T13:35:30.514Z,98071.13
2022-12-22T13:37:45.385Z,98065.20
2022-12-22T13:40:20.793Z,98069.37
2022-12-22T13:43:05.593Z,98062.66
2022-12-22T13:45:46.794Z,98065.70
2022-12-22T13:48:21.897Z,98092.53
2022-12-22T13:50:56.909Z,98089.02
2022-12-22T13:56:18.431Z,98100.60
2022-12-22T13:58:48.658Z,98128.50
2022-12-22T14:01:20.081Z,98144.93
2022-12-22T14:04:01.816Z,98169.79
2022-12-22T14:06:41.888Z,98178.87
2022-12-22T14:09:14.397Z,98190.66
2022-12-22T14:11:52.190Z,98192.38
2022-12-22T14:14:26.122Z,98197.38
2022-12-22T14:16:58.347Z,98194.73
2022-12-22T14:19:29.007Z,98197.19
2022-12-22T14:22:04.763Z,98217.21
2022-12-22T14:24:38.722Z,98211.20
2022-12-22T14:27:09.297Z,98215.58
2022-12-22T14:29:39.964Z,98226.27
2022-12-22T14:32:11.176Z,98223.57
2022-12-22T14:34:42.159Z,98250.08
2022-12-22T14:37:13.136Z,98253.37
2022-12-22T14:39:44.104Z,98268.70
2022-12-22T14:42:18.400Z,98279.09
2022-12-22T14:44:48.979Z,98292.80
2022-12-22T14:47:20.297Z,98301.83
2022-12-22T14:50:07.906Z,98302.95
2022-12-22T14:52:55.243Z,98296.72
2022-12-22T14:55:51.939Z,98307.19
2022-12-22T14:58:31.621Z,98327.76
2022-12-22T15:01:20.718Z,98334.91
2022-12-22T15:04:08.400Z,98335.72
2022-12-22T15:06:40.775Z,98337.95
2022-12-22T15:09:17.032Z,98362.34
2022-12-22T15:11:52.163Z,98379.09
2022-12-22T15:14:24.519Z,98385.70
2022-12-22T15:16:58.929Z,98395.58
2022-12-22T15:19:30.847Z,98418.28
2022-12-22T15:22:01.128Z,98431.18
2022-12-22T15:24:31.400Z,98439.70
2022-12-22T15:27:01.458Z,98441.39
2022-12-22T15:29:31.711Z,98444.71
2022-12-22T15:32:12.476Z,98452.92
2022-12-22T15:34:43.155Z,98467.73
2022-12-22T15:37:14.664Z,98474.56
2022-12-22T15:39:45.104Z,98466.88
2022-12-22T15:42:15.719Z,98472.11
2022-12-22T15:44:46.364Z,98472.93
2022-12-22T15:47:16.526Z,98469.66
2022-12-22T15:49:47.021Z,98466.38
2022-12-22T15:52:18.277Z,98491.84
2022-12-22T15:54:48.414Z,98469.10
2022-12-22T15:57:18.733Z,98476.25
2022-12-22T15:59:49.147Z,98458.47
2022-12-22T16:02:19.719Z,98451.09
2022-12-22T16:04:50.034Z,98527.14
2022-12-22T16:07:20.592Z,98527.14
2022-12-22T16:09:50.660Z,98543.87
2022-12-22T16:12:21.267Z,98554.81
2022-12-22T16:14:53.890Z,98589.00
2022-12-22T16:17:25.984Z,98591.74
2022-12-22T16:19:56.032Z,98604.88
2022-12-22T16:22:36.733Z,98604.88
2022-12-22T16:25:08.445Z,98613.63
2022-12-22T16:27:41.909Z,98630.09
2022-12-22T16:30:24.399Z,98628.41
2022-12-22T16:32:54.700Z,98643.77
2022-12-22T16:35:27.567Z,98645.42
2022-12-22T16:38:01.065Z,98644.89
2022-12-22T16:40:31.056Z,98644.89
2022-12-22T16:45:53.729Z,98677.77
2022-12-22T16:48:44.348Z,98652.76
2022-12-22T16:51:27.338Z,98643.41
2022-12-22T16:54:05.098Z,98650.22
2022-12-22T16:56:35.929Z,98655.06
2022-12-22T16:59:13.355Z,98672.81
2022-12-22T17:01:55.265Z,98670.88
2022-12-22T17:04:27.807Z,98675.53
2022-12-22T17:06:58.037Z,98692.26
2022-12-22T17:09:34.203Z,98692.29
2022-12-22T17:12:04.354Z,98720.81
2022-12-22T17:14:39.677Z,98724.20
2022-12-22T17:17:12.530Z,98750.22
2022-12-22T17:19:43.403Z,98723.58
2022-12-22T17:22:33.925Z,98724.12
2022-12-22T17:27:56.263Z,98703.67
2022-12-22T17:30:27.555Z,98711.17
2022-12-22T17:32:57.958Z,98706.11
2022-12-22T17:35:29.890Z,98721.27
2022-12-22T17:38:00.503Z,98706.15
2022-12-22T17:40:32.641Z,98682.00
2022-12-22T17:43:03.021Z,98694.62
2022-12-22T17:45:33.057Z,98687.09
2022-12-22T17:48:03.205Z,98673.59
2022-12-22T17:50:33.552Z,98660.14
2022-12-22T17:53:04.252Z,98661.19
2022-12-22T17:56:07.177Z,98668.17
2022-12-22T17:58:06.253Z,98670.29
2022-12-22T18:00:36.345Z,98669.39
2022-12-22T18:03:07.132Z,98664.61
2022-12-22T18:05:40.405Z,98667.14
2022-12-22T18:08:13.442Z,98687.27
2022-12-22T18:10:44.833Z,98709.30
2022-12-22T18:13:23.575Z,98710.02
2022-12-22T18:15:54.290Z,98710.98
2022-12-22T18:18:27.065Z,98739.84
2022-12-22T18:21:06.385Z,98717.13
2022-12-22T18:23:33.819Z,98732.58
2022-12-22T18:26:04.235Z,98756.48
2022-12-22T18:28:34.496Z,98745.42
2022-12-22T18:31:04.747Z,98746.25
2022-12-22T18:33:35.025Z,98759.25
2022-12-22T18:36:05.475Z,98802.25
2022-12-22T18:38:37.151Z,98799.45
2022-12-22T18:41:07.806Z,98800.48
2022-12-22T18:43:38.408Z,98792.38
2022-12-22T18:46:09.992Z,98791.06
2022-12-22T18:48:40.158Z,98801.90
2022-12-22T18:51:14.281Z,98802.94
2022-12-22T18:53:45.145Z,98822.62
2022-12-22T18:56:16.256Z,98813.53
2022-12-22T18:58:47.334Z,98814.19
2022-12-22T19:01:20.061Z,98818.81
2022-12-22T19:03:50.599Z,98823.62
2022-12-22T19:06:22.257Z,98834.44
2022-12-22T19:08:52.779Z,98852.05
2022-12-22T19:11:31.147Z,98860.21
2022-12-22T19:14:01.630Z,98865.06
2022-12-22T19:16:32.014Z,98880.55
2022-12-22T19:19:02.436Z,98881.08
2022-12-22T19:21:32.833Z,98880.59
2022-12-22T19:24:03.196Z,98888.87
2022-12-22T19:26:33.467Z,98907.10
2022-12-22T19:29:03.818Z,98895.48
2022-12-22T19:31:35.351Z,98917.26
2022-12-22T19:34:09.518Z,98908.56
2022-12-22T19:36:39.974Z,98912.25
2022-12-22T19:39:10.387Z,98899.58
2022-12-22T19:41:48.394Z,98903.07
2022-12-22T19:44:31.787Z,98892.05
2022-12-22T19:47:01.877Z,98885.55
2022-12-22T19:49:32.521Z,98879.16
2022-12-22T19:52:02.798Z,98872.36
2022-12-22T19:54:33.827Z,98867.15
2022-12-22T19:57:06.286Z,98856.34
2022-12-22T19:59:41.624Z,98868.83
2022-12-22T20:02:34.280Z,98888.08
2022-12-22T20:05:10.052Z,98909.66
2022-12-22T20:07:38.151Z,98927.64
2022-12-22T20:10:11.745Z,98920.74
2022-12-22T20:12:43.407Z,98921.27
2022-12-22T20:15:25.196Z,98911.27
2022-12-22T20:17:55.887Z,98914.72
2022-12-22T20:20:38.794Z,98921.52
2022-12-22T20:23:17.000Z,98920.05
2022-12-22T20:25:59.485Z,98924.73
2022-12-22T20:28:31.742Z,98932.30
2022-12-22T20:31:03.491Z,98940.13
2022-12-22T20:33:34.474Z,98953.11
2022-12-22T20:36:04.765Z,98935.42
2022-12-22T20:38:39.341Z,98934.39
2022-12-22T20:41:10.608Z,98925.50
2022-12-22T20:43:40.672Z,98931.23
2022-12-22T20:46:19.490Z,98952.17
2022-12-22T20:48:52.673Z,98948.63
2022-12-22T20:51:22.948Z,98943.48
2022-12-22T20:53:53.179Z,98961.70
2022-12-22T20:56:31.085Z,98965.55
2022-12-22T20:59:01.690Z,98963.16
2022-12-22T21:01:31.934Z,98941.69
2022-12-22T21:04:02.451Z,98967.34
2022-12-22T21:06:34.517Z,98978.83
2022-12-22T21:09:04.900Z,98972.02
2022-12-22T21:11:37.104Z,98993.20
2022-12-22T21:14:07.302Z,98996.65
2022-12-22T21:16:37.566Z,98995.49
2022-12-22T21:19:11.088Z,99004.81
2022-12-22T21:21:41.448Z,99028.78
2022-12-22T21:24:12.488Z,99027.42
2022-12-22T21:26:44.683Z,99024.06
2022-12-22T21:29:21.419Z,99028.78
2022-12-22T21:31:51.690Z,99035.28
2022-12-22T21:34:21.892Z,99048.56
2022-12-22T21:36:53.522Z,99059.15
2022-12-22T21:39:34.374Z,99069.30
2022-12-22T21:42:08.529Z,99074.12
2022-12-22T21:44:38.724Z,99076.01
2022-12-22T21:47:08.961Z,99088.78
2022-12-22T21:49:39.578Z,99087.09
2022-12-22T21:52:10.043Z,99092.23
2022-12-22T21:54:40.188Z,99077.90
2022-12-22T21:57:13.533Z,99096.19
2022-12-22T21:59:44.767Z,99114.22
2022-12-22T22:02:20.522Z,99113.88
2022-12-22T22:04:54.973Z,99116.83
2022-12-22T22:07:23.208Z,99107.20
2022-12-22T22:09:53.363Z,99114.44
2022-12-22T22:12:37.370Z,99133.78
2022-12-22T22:15:07.198Z,99130.43
2022-12-22T22:17:37.921Z,99123.13
2022-12-22T22:20:09.205Z,99144.67
2022-12-22T22:22:40.018Z,99151.91
2022-12-22T22:25:11.214Z,99151.59
2022-12-22T22:27:52.835Z,99151.98
2022-12-22T22:30:26.062Z,99153.58
2022-12-22T22:32:56.303Z,99166.12
2022-12-22T22:35:28.065Z,99169.67
2022-12-22T22:38:01.093Z,99163.94
2022-12-22T22:40:31.501Z,99174.19
2022-12-22T22:43:01.736Z,99180.69
2022-12-22T22:45:39.955Z,99178.91
2022-12-22T22:48:11.517Z,99178.80
2022-12-22T22:50:45.854Z,99183.72
2022-12-22T22:53:20.831Z,99182.12
2022-12-22T22:55:51.138Z,99186.84
2022-12-22T22:58:22.131Z,99191.88
2022-12-22T23:00:52.817Z,99199.50
2022-12-22T23:03:24.047Z,99210.61
2022-12-22T23:05:54.598Z,99206.42
2022-12-22T23:08:34.863Z,99199.81
2022-12-22T23:11:05.224Z,99198.88
2022-12-22T23:13:35.852Z,99204.95
2022-12-22T23:16:06.649Z,99195.85
2022-12-22T23:18:36.921Z,99209.45
2022-12-22T23:21:07.940Z,99209.76
2022-12-22T23:23:38.123Z,99213.65
2022-12-22T23:26:10.960Z,99218.86
2022-12-22T23:28:42.925Z,99219.17
2022-12-22T23:31:13.819Z,99209.95
2022-12-22T23:33:44.759Z,99207.36
2022-12-22T23:36:15.869Z,99229.12
2022-12-22T23:38:46.921Z,99244.72
2022-12-22T23:41:17.372Z,99246.37
2022-12-22T23:43:47.949Z,99246.49
2022-12-22T23:46:18.848Z,99254.54
2022-12-22T23:48:54.602Z,99265.31
2022-12-22T23:51:26.305Z,99274.30
2022-12-22T23:53:57.614Z,99269.20
2022-12-22T23:56:28.179Z,99271.92
2022-12-22T23:58:58.498Z,99289.91
